createdAt,value
2018-12-20T00:02:10.481Z,6.10
2018-12-20T00:04:39.340Z,6.10
2018-12-20T00:07:07.888Z,6.10
2018-12-20T00:09:36.957Z,6.10
2018-12-20T00:12:05.620Z,6.10
2018-12-20T00:14:34.411Z,6.20
2018-12-20T00:17:08.755Z,6.10
2018-12-20T00:19:37.644Z,6.20
2018-12-20T00:22:07.730Z,6.30
2018-12-20T00:24:36.348Z,6.40
2018-12-20T00:27:05.138Z,6.10
2018-12-20T00:29:33.715Z,6.20
2018-12-20T00:32:02.711Z,6.40
2018-12-20T00:34:31.533Z,6.30
2018-12-20T00:37:00.415Z,6.30
2018-12-20T00:39:29.072Z,6.30
2018-12-20T00:41:57.806Z,6.30
2018-12-20T00:44:26.785Z,6.40
2018-12-20T00:46:55.476Z,6.30
2018-12-20T00:49:24.457Z,6.40
2018-12-20T00:51:53.014Z,6.50
2018-12-20T00:54:21.919Z,6.60
2018-12-20T00:56:50.889Z,6.60
2018-12-20T00:59:19.673Z,6.70
2018-12-20T01:01:48.633Z,6.70
2018-12-20T01:04:17.394Z,6.90
2018-12-20T01:06:46.271Z,7.30
2018-12-20T01:09:15.167Z,7.70
2018-12-20T01:11:43.915Z,7.50
2018-12-20T01:14:12.614Z,7.70
2018-12-20T01:16:41.549Z,7.40
2018-12-20T01:19:14.984Z,7.40
2018-12-20T01:21:48.219Z,7.50
2018-12-20T01:24:22.969Z,7.20
2018-12-20T01:26:51.950Z,7.00
2018-12-20T01:29:20.628Z,6.90
2018-12-20T01:31:49.520Z,6.80
2018-12-20T01:34:18.464Z,6.80
2018-12-20T01:36:47.478Z,6.70
2018-12-20T01:39:16.468Z,6.70
2018-12-20T01:41:45.485Z,6.70
2018-12-20T01:44:14.311Z,6.70
2018-12-20T01:46:42.892Z,6.80
2018-12-20T01:49:11.851Z,7.20
2018-12-20T01:51:40.598Z,7.10
2018-12-20T01:54:09.484Z,7.00
2018-12-20T01:56:38.424Z,6.90
2018-12-20T01:59:07.457Z,6.60
2018-12-20T02:01:36.175Z,6.60
2018-12-20T02:04:05.234Z,6.60
2018-12-20T02:06:33.735Z,6.60
2018-12-20T02:09:03.120Z,6.80
2018-12-20T02:11:31.982Z,7.10
2018-12-20T02:14:00.822Z,7.20
2018-12-20T02:16:29.912Z,6.90
2018-12-20T02:18:58.519Z,6.80
2018-12-20T02:21:27.170Z,6.80
2018-12-20T02:23:55.970Z,6.70
2018-12-20T02:26:24.815Z,6.70
2018-12-20T02:28:53.843Z,6.60
2018-12-20T02:31:22.715Z,6.50
2018-12-20T02:33:51.376Z,6.50
2018-12-20T02:36:20.142Z,6.60
2018-12-20T02:38:48.997Z,6.80
2018-12-20T02:41:17.890Z,6.60
2018-12-20T02:43:46.755Z,6.50
2018-12-20T02:46:15.826Z,6.40
2018-12-20T02:48:44.621Z,6.70
2018-12-20T02:51:13.483Z,7.00
2018-12-20T02:53:42.191Z,7.00
2018-12-20T02:56:10.843Z,7.20
2018-12-20T02:58:39.690Z,7.40
2018-12-20T03:01:08.859Z,7.30
2018-12-20T03:03:37.928Z,7.30
2018-12-20T03:06:06.730Z,7.60
2018-12-20T03:08:35.567Z,7.80
2018-12-20T03:11:04.412Z,7.90
2018-12-20T03:13:33.401Z,7.90
2018-12-20T03:16:02.064Z,7.80
2018-12-20T03:18:30.951Z,7.80
2018-12-20T03:20:59.967Z,7.90
2018-12-20T03:23:28.964Z,8.00
2018-12-20T03:25:57.867Z,7.50
2018-12-20T03:28:26.583Z,7.30
2018-12-20T03:30:55.851Z,6.90
2018-12-20T03:33:24.609Z,6.80
2018-12-20T03:35:53.405Z,6.90
2018-12-20T03:38:22.216Z,7.00
2018-12-20T03:40:51.176Z,7.30
2018-12-20T03:43:20.074Z,7.30
2018-12-20T03:45:48.948Z,7.10
2018-12-20T03:48:17.843Z,7.10
2018-12-20T03:50:46.693Z,7.30
2018-12-20T03:53:15.717Z,7.50
2018-12-20T03:55:44.909Z,7.70
2018-12-20T03:58:13.768Z,7.80
2018-12-20T04:00:42.439Z,7.90
2018-12-20T04:03:11.193Z,7.80
2018-12-20T04:05:39.984Z,7.80
2018-12-20T04:08:08.702Z,8.00
2018-12-20T04:10:37.421Z,7.60
2018-12-20T04:13:06.225Z,7.60
2018-12-20T04:15:37.888Z,7.50
2018-12-20T04:18:05.838Z,7.60
2018-12-20T04:20:34.798Z,7.50
2018-12-20T04:23:03.807Z,7.60
2018-12-20T04:25:32.716Z,7.60
2018-12-20T04:28:01.585Z,7.80
2018-12-20T04:30:30.502Z,7.90
2018-12-20T04:32:59.380Z,7.70
2018-12-20T04:35:28.453Z,7.70
2018-12-20T04:37:57.127Z,7.60
2018-12-20T04:40:26.001Z,7.30
2018-12-20T04:42:54.712Z,7.30
2018-12-20T04:45:23.795Z,7.20
2018-12-20T04:47:52.484Z,7.20
2018-12-20T04:50:21.390Z,7.50
2018-12-20T04:52:50.362Z,7.60
2018-12-20T04:55:19.501Z,7.70
2018-12-20T04:57:48.267Z,7.70
2018-12-20T05:00:17.230Z,7.40
2018-12-20T05:02:46.049Z,7.30
2018-12-20T05:05:15.021Z,7.30
2018-12-20T05:07:43.846Z,7.40
2018-12-20T05:10:12.694Z,7.40
2018-12-20T05:12:41.750Z,7.40
2018-12-20T05:15:10.608Z,7.40
2018-12-20T05:17:39.432Z,7.40
2018-12-20T05:20:08.162Z,7.50
2018-12-20T05:22:36.952Z,7.70
2018-12-20T05:25:05.884Z,7.70
2018-12-20T05:27:34.932Z,7.90
2018-12-20T05:30:03.937Z,7.90
2018-12-20T05:32:32.659Z,7.70
2018-12-20T05:35:01.711Z,7.60
2018-12-20T05:37:31.443Z,7.70
2018-12-20T05:40:00.021Z,7.60
2018-12-20T05:42:28.858Z,7.60
2018-12-20T05:44:57.635Z,7.60
2018-12-20T05:47:26.566Z,7.50
2018-12-20T05:49:55.299Z,7.50
2018-12-20T05:52:24.085Z,7.50
2018-12-20T05:54:52.942Z,7.60
2018-12-20T05:57:21.830Z,7.70
2018-12-20T05:59:50.616Z,7.70
2018-12-20T06:02:19.413Z,7.70
2018-12-20T06:04:48.242Z,7.80
2018-12-20T06:07:17.080Z,7.80
2018-12-20T06:09:46.060Z,7.80
2018-12-20T06:12:15.790Z,7.90
2018-12-20T06:14:44.549Z,7.80
2018-12-20T06:17:13.501Z,7.60
2018-12-20T06:19:42.679Z,7.30
2018-12-20T06:22:11.813Z,7.10
2018-12-20T06:24:40.639Z,7.40
2018-12-20T06:27:09.279Z,7.90
2018-12-20T06:29:37.972Z,8.70
2018-12-20T06:32:06.672Z,9.10
2018-12-20T06:34:35.369Z,9.40
2018-12-20T06:37:04.126Z,9.20
2018-12-20T06:39:32.973Z,9.70
2018-12-20T06:42:01.686Z,10.10
2018-12-20T06:44:30.534Z,10.30
2018-12-20T06:46:59.136Z,10.10
2018-12-20T06:49:28.090Z,10.40
2018-12-20T06:51:56.770Z,11.20
2018-12-20T06:54:25.380Z,11.90
2018-12-20T06:56:54.147Z,11.60
2018-12-20T06:59:22.734Z,11.80
2018-12-20T07:01:51.420Z,11.60
2018-12-20T07:04:20.179Z,10.90
2018-12-20T07:06:48.889Z,11.80
2018-12-20T07:09:17.861Z,11.30
2018-12-20T07:11:46.656Z,12.60
2018-12-20T07:14:15.195Z,12.50
2018-12-20T07:16:43.990Z,12.00
2018-12-20T07:19:12.550Z,11.60
2018-12-20T07:21:41.182Z,12.00
2018-12-20T07:24:09.843Z,12.80
2018-12-20T07:26:38.753Z,13.30
2018-12-20T07:29:07.423Z,12.70
2018-12-20T07:31:36.269Z,12.70
2018-12-20T07:34:04.994Z,12.30
2018-12-20T07:36:33.559Z,13.90
2018-12-20T07:39:03.515Z,13.40
2018-12-20T07:41:32.101Z,13.90
2018-12-20T07:44:00.785Z,14.40
2018-12-20T07:46:37.556Z,13.90
2018-12-20T07:48:59.969Z,12.90
2018-12-20T07:51:28.787Z,13.70
2018-12-20T07:53:57.405Z,13.30
2018-12-20T07:56:26.187Z,13.60
2018-12-20T07:58:54.981Z,14.60
2018-12-20T08:01:23.660Z,14.70
2018-12-20T08:03:52.452Z,15.40
2018-12-20T08:06:21.261Z,15.50
2018-12-20T08:08:50.012Z,14.90
2018-12-20T08:11:18.759Z,14.80
2018-12-20T08:13:47.742Z,14.90
2018-12-20T08:16:16.367Z,14.60
2018-12-20T08:18:45.147Z,14.20
2018-12-20T08:21:13.746Z,14.00
2018-12-20T08:23:42.802Z,14.00
2018-12-20T08:26:11.435Z,13.80
2018-12-20T08:28:40.139Z,13.40
2018-12-20T08:31:08.996Z,14.20
2018-12-20T08:33:37.697Z,14.30
2018-12-20T08:36:06.486Z,14.80
2018-12-20T08:38:35.458Z,15.10
2018-12-20T08:41:04.104Z,16.80
2018-12-20T08:43:32.830Z,16.40
2018-12-20T08:46:01.536Z,16.80
2018-12-20T08:48:30.307Z,16.70
2018-12-20T08:50:59.211Z,17.40
2018-12-20T08:53:27.998Z,16.70
2018-12-20T08:55:57.468Z,16.90
2018-12-20T08:58:26.400Z,16.90
2018-12-20T09:00:55.183Z,17.30
2018-12-20T09:03:24.286Z,16.70
2018-12-20T09:05:53.186Z,16.60
2018-12-20T09:08:22.273Z,16.00
2018-12-20T09:10:51.039Z,15.80
2018-12-20T09:13:21.455Z,15.80
2018-12-20T09:15:50.540Z,16.50
2018-12-20T09:18:19.666Z,17.20
2018-12-20T09:20:48.758Z,17.70
2018-12-20T09:23:17.534Z,19.00
2018-12-20T09:25:46.314Z,20.80
2018-12-20T09:28:15.008Z,21.10
2018-12-20T09:30:44.004Z,21.30
2018-12-20T09:33:13.218Z,21.10
2018-12-20T09:35:41.980Z,21.40
2018-12-20T09:38:10.778Z,22.30
2018-12-20T09:40:39.571Z,23.40
2018-12-20T09:43:08.428Z,22.80
2018-12-20T09:45:37.030Z,20.00
2018-12-20T09:48:06.094Z,18.70
2018-12-20T09:50:35.487Z,19.50
2018-12-20T09:53:03.783Z,19.60
2018-12-20T09:55:32.330Z,19.30
2018-12-20T09:58:00.982Z,19.80
2018-12-20T10:00:29.787Z,20.40
2018-12-20T10:02:58.396Z,20.90
2018-12-20T10:05:27.142Z,21.50
2018-12-20T10:07:55.770Z,20.70
2018-12-20T10:10:24.508Z,21.60
2018-12-20T10:12:53.309Z,21.30
2018-12-20T10:15:21.982Z,21.10
2018-12-20T10:17:50.720Z,21.40
2018-12-20T10:20:19.539Z,21.80
2018-12-20T10:22:48.037Z,22.80
2018-12-20T10:25:16.820Z,23.80
2018-12-20T10:27:45.404Z,23.50
2018-12-20T10:30:13.831Z,23.10
2018-12-20T10:32:42.573Z,24.30
2018-12-20T10:35:11.307Z,22.30
2018-12-20T10:37:40.129Z,22.30
2018-12-20T10:40:08.888Z,21.90
2018-12-20T10:42:37.426Z,23.00
2018-12-20T10:45:07.146Z,22.10
2018-12-20T10:47:36.007Z,22.30
2018-12-20T10:50:05.286Z,20.90
2018-12-20T10:52:34.052Z,20.80
2018-12-20T10:55:02.768Z,21.50
2018-12-20T10:57:31.369Z,21.70
2018-12-20T11:00:00.260Z,21.80
2018-12-20T11:03:32.741Z,21.00
2018-12-20T11:06:05.808Z,21.80
2018-12-20T11:08:36.692Z,20.50
2018-12-20T11:11:06.681Z,19.80
2018-12-20T11:13:35.495Z,19.80
2018-12-20T11:16:04.333Z,20.10
2018-12-20T11:18:33.310Z,20.80
2018-12-20T11:21:02.242Z,20.20
2018-12-20T11:23:31.291Z,19.20
2018-12-20T11:26:00.023Z,19.80
2018-12-20T11:28:28.749Z,20.00
2018-12-20T11:30:57.466Z,20.70
2018-12-20T11:33:26.282Z,20.80
2018-12-20T11:35:54.945Z,21.10
2018-12-20T11:38:23.647Z,21.20
2018-12-20T11:40:54.589Z,21.70
2018-12-20T11:43:23.253Z,21.20
2018-12-20T11:45:52.272Z,20.30
2018-12-20T11:48:21.055Z,19.70
2018-12-20T11:50:49.783Z,20.10
2018-12-20T11:53:18.512Z,19.70
2018-12-20T11:55:47.787Z,20.00
2018-12-20T11:58:16.482Z,20.20
2018-12-20T12:00:45.078Z,19.90
2018-12-20T12:03:13.673Z,19.90
2018-12-20T12:05:42.679Z,19.40
2018-12-20T12:08:11.315Z,19.50
2018-12-20T12:10:39.913Z,19.30
2018-12-20T12:13:08.506Z,19.30
2018-12-20T12:15:37.315Z,19.40
2018-12-20T12:18:06.053Z,19.70
2018-12-20T12:20:34.722Z,20.30
2018-12-20T12:23:03.342Z,20.30
2018-12-20T12:25:32.374Z,21.00
2018-12-20T12:28:01.062Z,21.40
2018-12-20T12:30:29.842Z,20.50
2018-12-20T12:32:58.493Z,21.20
2018-12-20T12:35:27.127Z,19.80
2018-12-20T12:37:55.972Z,18.90
2018-12-20T12:40:24.703Z,18.30
2018-12-20T12:42:53.273Z,18.70
2018-12-20T12:45:21.989Z,18.20
2018-12-20T12:48:03.210Z,18.00
2018-12-20T12:50:26.656Z,17.90
2018-12-20T12:52:55.461Z,18.20
2018-12-20T12:55:24.082Z,17.90
2018-12-20T12:57:52.779Z,17.40
2018-12-20T13:00:22.299Z,17.10
2018-12-20T13:02:50.827Z,17.10
2018-12-20T13:05:19.545Z,17.50
2018-12-20T13:07:48.251Z,17.80
2018-12-20T13:10:16.929Z,17.20
2018-12-20T13:12:45.674Z,17.00
2018-12-20T13:15:14.882Z,16.80
2018-12-20T13:17:43.516Z,17.00
2018-12-20T13:20:12.341Z,16.90
2018-12-20T13:22:41.230Z,17.10
2018-12-20T13:25:09.642Z,17.50
2018-12-20T13:27:38.061Z,18.40
2018-12-20T13:30:09.859Z,19.60
2018-12-20T13:32:38.490Z,18.60
2018-12-20T13:35:07.179Z,18.40
2018-12-20T13:37:36.575Z,18.60
2018-12-20T13:40:05.985Z,17.90
2018-12-20T13:42:34.927Z,17.60
2018-12-20T13:45:03.897Z,17.50
2018-12-20T13:47:33.917Z,17.10
2018-12-20T13:50:03.509Z,16.90
2018-12-20T13:52:33.268Z,16.50
2018-12-20T13:55:01.873Z,16.50
2018-12-20T13:57:30.470Z,16.10
2018-12-20T13:59:59.420Z,15.90
2018-12-20T14:02:28.177Z,15.80
2018-12-20T14:04:56.979Z,16.00
2018-12-20T14:07:25.742Z,16.00
2018-12-20T14:09:54.340Z,16.10
2018-12-20T14:12:23.146Z,16.40
2018-12-20T14:14:52.026Z,16.20
2018-12-20T14:17:20.762Z,16.00
2018-12-20T14:19:49.775Z,15.60
2018-12-20T14:22:18.440Z,15.70
2018-12-20T14:24:47.173Z,15.70
2018-12-20T14:27:15.848Z,15.60
2018-12-20T14:29:44.801Z,15.50
2018-12-20T14:32:13.633Z,15.50
2018-12-20T14:34:42.287Z,15.50
2018-12-20T14:37:11.087Z,15.40
2018-12-20T14:39:39.791Z,15.30
2018-12-20T14:42:09.610Z,15.20
2018-12-20T14:44:38.487Z,15.20
2018-12-20T14:47:07.754Z,15.20
2018-12-20T14:49:37.631Z,15.10
2018-12-20T14:52:08.262Z,15.10
2018-12-20T14:54:36.895Z,15.20
2018-12-20T14:57:05.501Z,15.00
2018-12-20T14:59:34.289Z,14.90
2018-12-20T15:02:03.054Z,14.70
2018-12-20T15:04:31.885Z,14.80
2018-12-20T15:07:00.556Z,14.80
2018-12-20T15:09:29.268Z,14.70
2018-12-20T15:11:58.050Z,14.60
2018-12-20T15:14:27.117Z,14.50
2018-12-20T15:16:56.159Z,14.40
2018-12-20T15:19:25.072Z,14.40
2018-12-20T15:21:53.890Z,14.30
2018-12-20T15:24:22.619Z,14.40
2018-12-20T15:26:51.450Z,14.30
2018-12-20T15:29:20.456Z,13.90
2018-12-20T15:31:53.360Z,13.90
2018-12-20T15:34:20.384Z,13.90
2018-12-20T15:36:49.103Z,13.80
2018-12-20T15:39:17.939Z,13.90
2018-12-20T15:41:46.722Z,14.10
2018-12-20T15:44:15.278Z,14.20
2018-12-20T15:46:44.085Z,13.80
2018-12-20T15:49:13.105Z,13.60
2018-12-20T15:51:41.850Z,13.80
2018-12-20T15:54:10.501Z,13.60
2018-12-20T15:56:39.373Z,13.50
2018-12-20T15:59:08.260Z,13.60
2018-12-20T16:01:37.036Z,13.40
2018-12-20T16:04:05.827Z,13.20
2018-12-20T16:06:34.864Z,13.10
2018-12-20T16:09:04.816Z,13.10
2018-12-20T16:11:33.618Z,12.80
2018-12-20T16:14:08.874Z,12.70
2018-12-20T16:16:38.028Z,12.50
2018-12-20T16:19:06.705Z,12.80
2018-12-20T16:21:35.239Z,12.90
2018-12-20T16:24:04.025Z,12.60
2018-12-20T16:26:32.775Z,12.60
2018-12-20T16:29:01.548Z,12.80
2018-12-20T16:31:30.427Z,12.90
2018-12-20T16:33:59.115Z,13.10
2018-12-20T16:36:28.025Z,12.90
2018-12-20T16:38:56.686Z,12.70
2018-12-20T16:41:25.538Z,12.90
2018-12-20T16:43:54.397Z,12.80
2018-12-20T16:46:23.115Z,12.50
2018-12-20T16:48:53.981Z,12.50
2018-12-20T16:51:23.248Z,12.50
2018-12-20T16:53:52.138Z,12.60
2018-12-20T16:56:20.750Z,12.10
2018-12-20T16:58:49.534Z,11.60
2018-12-20T17:01:18.126Z,11.80
2018-12-20T17:03:46.683Z,12.10
2018-12-20T17:06:15.463Z,12.00
2018-12-20T17:08:48.290Z,12.10
2018-12-20T17:11:15.431Z,12.40
2018-12-20T17:13:44.071Z,12.00
2018-12-20T17:16:12.910Z,12.20
2018-12-20T17:18:41.518Z,12.50
2018-12-20T17:21:10.114Z,12.40
2018-12-20T17:23:38.849Z,12.70
2018-12-20T17:26:07.709Z,12.80
2018-12-20T17:28:36.496Z,12.70
2018-12-20T17:31:05.262Z,12.70
2018-12-20T17:33:34.061Z,12.30
2018-12-20T17:36:02.493Z,12.30
2018-12-20T17:38:31.237Z,12.20
2018-12-20T17:41:00.024Z,12.10
2018-12-20T17:43:28.816Z,12.00
2018-12-20T17:45:57.583Z,12.00
2018-12-20T17:48:29.422Z,12.10
2018-12-20T17:50:57.246Z,12.10
2018-12-20T17:53:26.013Z,12.10
2018-12-20T17:55:54.956Z,12.20
2018-12-20T17:58:23.631Z,12.20
2018-12-20T18:00:52.669Z,12.60
2018-12-20T18:03:21.477Z,12.80
2018-12-20T18:05:50.565Z,12.40
2018-12-20T18:08:19.252Z,12.40
2018-12-20T18:10:48.117Z,12.70
2018-12-20T18:13:16.822Z,12.70
2018-12-20T18:15:45.693Z,12.80
2018-12-20T18:18:14.278Z,12.70
2018-12-20T18:20:43.063Z,12.80
2018-12-20T18:23:11.834Z,12.80
2018-12-20T18:25:40.337Z,12.70
2018-12-20T18:28:09.223Z,12.80
2018-12-20T18:30:37.971Z,13.00
2018-12-20T18:33:06.693Z,12.90
2018-12-20T18:35:35.571Z,13.20
2018-12-20T18:38:04.123Z,13.10
2018-12-20T18:40:32.877Z,13.30
2018-12-20T18:43:01.802Z,13.30
2018-12-20T18:45:30.642Z,13.30
2018-12-20T18:47:59.399Z,13.40
2018-12-20T18:50:28.114Z,13.50
2018-12-20T18:52:56.922Z,13.40
2018-12-20T18:55:25.701Z,13.50
2018-12-20T18:57:54.597Z,13.50
2018-12-20T19:00:23.402Z,13.80
2018-12-20T19:02:52.095Z,13.80
2018-12-20T19:05:20.890Z,13.70
2018-12-20T19:07:49.653Z,13.70
2018-12-20T19:10:20.048Z,13.80
2018-12-20T19:12:48.752Z,13.70
2018-12-20T19:15:17.738Z,13.70
2018-12-20T19:17:46.409Z,13.60
2018-12-20T19:20:16.336Z,13.50
2018-12-20T19:22:45.387Z,13.60
2018-12-20T19:25:13.918Z,13.60
2018-12-20T19:27:42.696Z,13.70
2018-12-20T19:30:11.600Z,13.70
2018-12-20T19:32:40.797Z,13.60
2018-12-20T19:35:09.579Z,13.60
2018-12-20T19:37:38.342Z,13.50
2018-12-20T19:40:08.859Z,13.50
2018-12-20T19:42:37.569Z,13.60
2018-12-20T19:45:06.395Z,13.60
2018-12-20T19:47:35.665Z,13.60
2018-12-20T19:50:05.277Z,13.60
2018-12-20T19:52:34.102Z,13.50
2018-12-20T19:55:02.647Z,13.30
2018-12-20T19:57:31.450Z,13.40
2018-12-20T20:00:00.746Z,13.50
2018-12-20T20:02:29.361Z,13.60
2018-12-20T20:04:58.051Z,13.60
2018-12-20T20:07:26.874Z,13.70
2018-12-20T20:09:55.679Z,13.70
2018-12-20T20:12:24.298Z,13.70
2018-12-20T20:14:53.019Z,13.70
2018-12-20T20:17:21.734Z,13.70
2018-12-20T20:19:50.222Z,13.80
2018-12-20T20:22:18.946Z,13.80
2018-12-20T20:24:47.487Z,13.70
2018-12-20T20:27:16.372Z,13.80
2018-12-20T20:29:45.132Z,13.90
2018-12-20T20:32:13.950Z,14.00
2018-12-20T20:34:42.734Z,14.00
2018-12-20T20:37:11.527Z,14.20
2018-12-20T20:39:40.416Z,14.30
2018-12-20T20:42:09.100Z,14.20
2018-12-20T20:44:37.789Z,14.20
2018-12-20T20:47:06.421Z,14.20
2018-12-20T20:49:35.361Z,14.30
2018-12-20T20:52:04.082Z,14.20
2018-12-20T20:54:32.528Z,13.80
2018-12-20T20:57:01.194Z,13.20
2018-12-20T20:59:29.795Z,13.20
2018-12-20T21:01:59.689Z,13.30
2018-12-20T21:04:28.239Z,13.50
2018-12-20T21:06:56.898Z,13.00
2018-12-20T21:09:26.178Z,12.30
2018-12-20T21:11:54.860Z,12.80
2018-12-20T21:14:23.591Z,13.40
2018-12-20T21:16:52.261Z,13.70
2018-12-20T21:19:20.796Z,13.90
2018-12-20T21:21:49.607Z,14.10
2018-12-20T21:24:18.110Z,14.00
2018-12-20T21:26:46.971Z,14.10
2018-12-20T21:29:15.881Z,13.60
2018-12-20T21:31:44.549Z,13.40
2018-12-20T21:34:13.139Z,13.50
2018-12-20T21:36:42.165Z,13.60
2018-12-20T21:39:11.012Z,13.30
2018-12-20T21:41:39.966Z,13.50
2018-12-20T21:44:08.642Z,13.70
2018-12-20T21:46:37.384Z,13.90
2018-12-20T21:49:06.003Z,13.90
2018-12-20T21:51:34.846Z,13.90
2018-12-20T21:54:03.639Z,14.00
2018-12-20T21:56:32.326Z,13.80
2018-12-20T21:59:01.191Z,13.30
2018-12-20T22:01:29.805Z,12.90
2018-12-20T22:03:58.582Z,12.50
2018-12-20T22:06:27.267Z,12.40
2018-12-20T22:08:55.860Z,12.30
2018-12-20T22:11:24.730Z,12.00
2018-12-20T22:13:53.450Z,11.90
2018-12-20T22:16:22.196Z,12.30
2018-12-20T22:18:50.899Z,12.60
2018-12-20T22:21:19.825Z,12.70
2018-12-20T22:23:48.611Z,12.50
2018-12-20T22:26:17.372Z,12.50
2018-12-20T22:28:45.958Z,12.80
2018-12-20T22:31:14.675Z,12.50
2018-12-20T22:33:43.451Z,12.60
2018-12-20T22:36:12.207Z,12.70
2018-12-20T22:38:41.108Z,12.50
2018-12-20T22:41:09.784Z,12.50
2018-12-20T22:43:38.557Z,12.00
2018-12-20T22:46:07.364Z,11.70
2018-12-20T22:48:36.098Z,11.60
2018-12-20T22:51:04.810Z,11.20
2018-12-20T22:53:33.462Z,11.50
2018-12-20T22:56:02.201Z,11.70
2018-12-20T22:58:31.078Z,11.80
2018-12-20T23:01:00.463Z,12.00
2018-12-20T23:03:29.164Z,12.00
2018-12-20T23:05:57.966Z,12.40
2018-12-20T23:08:26.815Z,12.20
2018-12-20T23:10:55.623Z,12.60
2018-12-20T23:13:24.224Z,12.50
2018-12-20T23:15:53.013Z,12.70
2018-12-20T23:18:21.820Z,12.40
2018-12-20T23:20:50.667Z,12.40
2018-12-20T23:23:19.269Z,12.50
2018-12-20T23:25:48.055Z,12.60
2018-12-20T23:28:16.830Z,12.40
2018-12-20T23:30:45.538Z,12.50
2018-12-20T23:33:14.262Z,12.60
2018-12-20T23:35:43.214Z,12.20
2018-12-20T23:38:12.011Z,12.30
2018-12-20T23:40:40.787Z,12.50
2018-12-20T23:43:09.334Z,12.80
2018-12-20T23:45:38.018Z,12.90
2018-12-20T23:48:06.832Z,13.10
2018-12-20T23:50:35.462Z,13.10
2018-12-20T23:53:04.112Z,13.10
2018-12-20T23:55:32.745Z,13.10
2018-12-20T23:58:01.679Z,13.10
